createdAt,value
2018-08-03T00:00:38.874Z,27.28
2018-08-03T00:03:16.056Z,27.24
2018-08-03T00:05:52.869Z,27.24
2018-08-03T00:08:36.059Z,27.24
2018-08-03T00:11:13.815Z,27.27
2018-08-03T00:13:50.473Z,27.28
2018-08-03T00:16:27.421Z,27.28
2018-08-03T00:21:46.659Z,27.30
2018-08-03T00:24:23.972Z,27.32
2018-08-03T00:27:00.646Z,27.34
2018-08-03T00:29:37.808Z,27.37
2018-08-03T00:32:14.422Z,27.40
2018-08-03T00:34:56.958Z,27.39
2018-08-03T00:37:34.290Z,27.41
2018-08-03T00:40:11.972Z,27.44
2018-08-03T00:42:48.998Z,27.47
2018-08-03T00:45:26.495Z,27.52
2018-08-03T00:48:04.475Z,27.50
2018-08-03T00:50:41.282Z,27.52
2018-08-03T00:53:17.911Z,27.54
2018-08-03T00:55:54.783Z,27.58
2018-08-03T00:58:31.678Z,27.59
2018-08-03T01:01:08.849Z,27.61
2018-08-03T01:03:46.409Z,27.65
2018-08-03T01:06:23.341Z,27.70
2018-08-03T01:09:00.353Z,27.74
2018-08-03T01:11:38.059Z,27.77
2018-08-03T01:14:15.380Z,27.82
2018-08-03T01:16:52.443Z,27.85
2018-08-03T01:19:29.755Z,27.91
2018-08-03T01:22:07.253Z,27.94
2018-08-03T01:24:44.932Z,28.00
2018-08-03T01:27:21.764Z,28.05
2018-08-03T01:29:58.805Z,28.11
2018-08-03T01:32:35.919Z,28.19
2018-08-03T01:35:12.475Z,28.18
2018-08-03T01:37:49.265Z,28.18
2018-08-03T01:40:26.269Z,28.26
2018-08-03T01:43:03.102Z,28.29
2018-08-03T01:45:40.418Z,28.34
2018-08-03T01:48:17.557Z,28.39
2018-08-03T01:50:55.165Z,28.42
2018-08-03T01:53:31.744Z,28.47
2018-08-03T01:56:07.846Z,28.54
2018-08-03T01:58:44.467Z,28.51
2018-08-03T02:01:21.650Z,28.52
2018-08-03T02:03:58.756Z,28.53
2018-08-03T02:06:35.533Z,28.46
2018-08-03T02:09:14.314Z,28.51
2018-08-03T02:11:51.511Z,28.52
2018-08-03T02:14:36.424Z,28.54
2018-08-03T02:17:14.411Z,28.58
2018-08-03T02:19:51.613Z,28.60
2018-08-03T02:22:28.867Z,28.57
2018-08-03T02:25:06.124Z,28.56
2018-08-03T02:27:43.976Z,28.60
2018-08-03T02:30:20.716Z,28.61
2018-08-03T02:32:57.496Z,28.58
2018-08-03T02:35:36.290Z,28.65
2018-08-03T02:38:13.195Z,28.62
2018-08-03T02:40:49.945Z,28.65
2018-08-03T02:43:26.177Z,28.74
2018-08-03T02:46:02.448Z,28.83
2018-08-03T02:48:39.389Z,28.85
2018-08-03T02:51:17.565Z,28.87
2018-08-03T02:53:55.000Z,28.96
2018-08-03T02:56:50.336Z,29.10
2018-08-03T02:59:26.790Z,29.18
2018-08-03T03:02:03.249Z,29.21
2018-08-03T03:04:39.692Z,29.40
2018-08-03T03:07:17.212Z,29.56
2018-08-03T03:09:53.993Z,29.70
2018-08-03T03:12:32.052Z,29.78
2018-08-03T03:15:08.608Z,29.85
2018-08-03T03:17:46.490Z,29.77
2018-08-03T03:20:23.467Z,29.81
2018-08-03T03:22:59.798Z,29.88
2018-08-03T03:25:41.611Z,30.05
2018-08-03T03:28:18.808Z,30.22
2018-08-03T03:30:56.149Z,30.08
2018-08-03T03:36:21.685Z,30.28
2018-08-03T03:38:58.573Z,30.37
2018-08-03T03:41:34.322Z,30.33
2018-08-03T03:44:12.419Z,30.44
2018-08-03T03:46:49.957Z,30.40
2018-08-03T03:49:27.217Z,30.53
2018-08-03T03:52:04.051Z,30.64
2018-08-03T03:54:40.049Z,30.73
2018-08-03T03:57:16.971Z,30.81
2018-08-03T03:59:54.158Z,30.59
2018-08-03T04:02:30.967Z,30.72
2018-08-03T04:05:15.290Z,30.87
2018-08-03T04:07:52.189Z,30.84
2018-08-03T04:10:32.880Z,30.82
2018-08-03T04:15:54.582Z,30.66
2018-08-03T04:18:33.852Z,30.68
2018-08-03T04:21:11.337Z,30.77
2018-08-03T04:23:47.927Z,30.79
2018-08-03T04:26:30.465Z,30.83
2018-08-03T04:31:57.930Z,30.88
2018-08-03T04:34:35.409Z,31.02
2018-08-03T04:37:12.131Z,31.08
2018-08-03T04:39:49.042Z,31.17
2018-08-03T04:42:25.873Z,31.16
2018-08-03T04:45:02.877Z,31.16
2018-08-03T04:47:40.133Z,31.14
2018-08-03T04:50:17.224Z,31.06
2018-08-03T04:52:54.289Z,30.97
2018-08-03T04:55:31.212Z,30.94
2018-08-03T04:58:07.646Z,30.79
2018-08-03T05:00:44.223Z,30.85
2018-08-03T05:03:21.246Z,30.94
2018-08-03T05:05:58.537Z,30.97
2018-08-03T05:08:35.209Z,31.05
2018-08-03T05:11:12.262Z,31.24
2018-08-03T05:16:35.843Z,31.24
2018-08-03T05:19:12.844Z,31.38
2018-08-03T05:21:50.155Z,31.29
2018-08-03T05:24:26.628Z,31.16
2018-08-03T05:27:03.143Z,31.17
2018-08-03T05:29:39.410Z,31.20
2018-08-03T05:32:25.677Z,31.06
2018-08-03T05:35:02.373Z,31.06
2018-08-03T05:37:40.229Z,31.05
2018-08-03T05:40:17.519Z,31.15
2018-08-03T05:42:54.331Z,31.38
2018-08-03T05:48:27.620Z,31.84
2018-08-03T05:51:04.158Z,31.49
2018-08-03T05:53:40.632Z,31.57
2018-08-03T05:56:22.933Z,31.53
2018-08-03T05:59:01.705Z,31.36
2018-08-03T06:01:39.668Z,31.26
2018-08-03T06:04:18.564Z,31.36
2018-08-03T06:06:56.054Z,31.49
2018-08-03T06:13:32.094Z,31.59
2018-08-03T06:16:08.378Z,31.83
2018-08-03T06:19:03.820Z,31.80
2018-08-03T06:21:41.268Z,31.82
2018-08-03T06:24:18.496Z,31.74
2018-08-03T06:26:57.214Z,31.73
2018-08-03T06:32:19.982Z,31.60
2018-08-03T06:34:56.505Z,31.69
2018-08-03T06:37:32.824Z,31.66
2018-08-03T06:40:09.645Z,31.87
2018-08-03T06:42:46.523Z,31.69
2018-08-03T06:45:22.811Z,31.81
2018-08-03T06:47:59.763Z,31.71
2018-08-03T06:50:37.168Z,31.87
2018-08-03T06:53:15.047Z,31.60
2018-08-03T06:55:52.050Z,31.42
2018-08-03T06:58:28.300Z,31.33
2018-08-03T07:01:05.195Z,31.08
2018-08-03T07:07:35.480Z,30.96
2018-08-03T07:10:12.810Z,31.10
2018-08-03T07:12:49.928Z,31.38
2018-08-03T07:15:26.827Z,31.39
2018-08-03T07:23:39.117Z,31.81
2018-08-03T07:38:07.040Z,31.88
2018-08-03T07:40:44.934Z,31.94
2018-08-03T07:43:21.543Z,32.13
2018-08-03T08:49:21.344Z,32.07
2018-08-03T09:01:26.899Z,31.97
2018-08-03T09:04:04.496Z,31.91
2018-08-03T09:06:42.255Z,31.82
2018-08-03T09:09:20.971Z,31.77
2018-08-03T09:11:58.206Z,31.67
2018-08-03T09:14:43.334Z,31.67
2018-08-03T09:17:43.802Z,31.65
2018-08-03T09:20:23.110Z,31.56
2018-08-03T09:23:01.434Z,31.46
2018-08-03T09:25:38.824Z,31.39
2018-08-03T09:28:14.455Z,31.38
2018-08-03T09:30:51.732Z,31.36
2018-08-03T09:33:29.380Z,31.36
2018-08-03T09:36:13.457Z,31.39
2018-08-03T09:38:50.686Z,31.42
2018-08-03T09:41:27.774Z,31.48
2018-08-03T09:44:05.066Z,31.47
2018-08-03T09:46:42.449Z,31.55
2018-08-03T09:49:20.290Z,31.58
2018-08-03T09:51:57.731Z,31.70
2018-08-03T09:54:35.517Z,31.67
2018-08-03T09:57:12.952Z,31.54
2018-08-03T09:59:50.284Z,31.47
2018-08-03T10:02:33.571Z,31.50
2018-08-03T10:05:13.057Z,31.49
2018-08-03T10:09:31.886Z,31.50
2018-08-03T10:12:07.982Z,31.38
2018-08-03T10:14:51.937Z,31.29
2018-08-03T10:23:26.897Z,31.04
2018-08-03T10:26:02.999Z,30.96
2018-08-03T10:28:41.947Z,30.85
2018-08-03T10:31:19.768Z,30.73
2018-08-03T10:33:56.546Z,30.57
2018-08-03T10:36:32.378Z,30.45
2018-08-03T10:39:10.219Z,30.22
2018-08-03T10:41:45.895Z,29.94
2018-08-03T10:44:21.911Z,29.60
2018-08-03T10:46:57.613Z,29.55
2018-08-03T10:49:33.448Z,29.23
2018-08-03T10:52:09.300Z,28.88
2018-08-03T10:54:44.947Z,28.76
2018-08-03T10:57:20.799Z,28.61
2018-08-03T10:59:57.336Z,28.32
2018-08-03T11:02:33.205Z,28.47
2018-08-03T11:05:09.155Z,28.45
2018-08-03T11:07:44.671Z,28.55
2018-08-03T11:10:21.093Z,28.45
2018-08-03T11:12:57.078Z,28.50
2018-08-03T11:15:32.719Z,28.39
2018-08-03T11:18:08.231Z,28.14
2018-08-03T11:20:46.637Z,28.13
2018-08-03T11:23:25.378Z,27.83
2018-08-03T11:26:03.157Z,27.78
2018-08-03T11:28:41.832Z,27.88
2018-08-03T11:33:31.443Z,27.93
2018-08-03T11:36:10.163Z,27.88
2018-08-03T11:38:46.284Z,27.73
2018-08-03T11:41:25.039Z,27.62
2018-08-03T11:44:03.488Z,27.59
2018-08-03T11:46:42.243Z,27.47
2018-08-03T11:49:20.881Z,27.33
2018-08-03T11:51:59.518Z,27.27
2018-08-03T11:54:38.265Z,27.28
2018-08-03T11:57:16.405Z,27.20
2018-08-03T11:59:55.281Z,27.24
2018-08-03T12:02:33.444Z,27.12
2018-08-03T12:05:11.919Z,27.18
2018-08-03T12:07:50.964Z,27.10
2018-08-03T12:10:29.362Z,27.04
2018-08-03T12:13:07.904Z,27.03
2018-08-03T12:15:46.796Z,27.01
2018-08-03T12:18:25.272Z,27.02
2018-08-03T12:21:02.085Z,27.01
2018-08-03T12:23:40.189Z,27.01
2018-08-03T12:26:22.980Z,27.05
2018-08-03T12:29:27.484Z,27.10
2018-08-03T12:32:05.683Z,27.16
2018-08-03T12:34:44.411Z,27.27
2018-08-03T12:37:21.649Z,27.29
2018-08-03T12:40:16.569Z,27.30
2018-08-03T12:42:54.444Z,27.41
2018-08-03T12:45:51.207Z,27.42
2018-08-03T12:51:47.451Z,27.32
2018-08-03T12:54:24.115Z,27.38
2018-08-03T12:57:02.232Z,27.25
2018-08-03T12:59:51.572Z,27.26
2018-08-03T13:02:29.453Z,27.34
2018-08-03T13:05:07.357Z,27.43
2018-08-03T13:07:44.863Z,27.43
2018-08-03T13:10:25.210Z,27.52
2018-08-03T13:13:03.166Z,27.61
2018-08-03T13:15:40.812Z,27.53
2018-08-03T13:18:18.728Z,27.58
2018-08-03T13:20:55.996Z,27.57
2018-08-03T13:23:33.125Z,27.54
2018-08-03T13:26:11.238Z,27.49
2018-08-03T13:28:49.766Z,27.52
2018-08-03T13:31:27.361Z,27.46
2018-08-03T13:34:04.440Z,27.46
2018-08-03T13:36:41.833Z,27.44
2018-08-03T13:39:22.197Z,27.45
2018-08-03T13:44:44.253Z,27.55
2018-08-03T13:47:23.360Z,27.59
2018-08-03T13:50:00.643Z,27.62
2018-08-03T13:52:39.117Z,27.67
2018-08-03T13:55:16.917Z,27.65
2018-08-03T13:57:54.512Z,27.66
2018-08-03T14:00:32.562Z,27.62
2018-08-03T14:03:12.089Z,27.56
2018-08-03T14:05:50.081Z,27.53
2018-08-03T14:08:32.573Z,27.52
2018-08-03T14:11:20.676Z,27.47
2018-08-03T14:16:55.011Z,27.46
2018-08-03T14:19:32.250Z,27.43
2018-08-03T14:24:54.843Z,27.44
2018-08-03T14:27:33.365Z,27.43
2018-08-03T14:30:10.050Z,27.46
2018-08-03T14:32:47.290Z,27.48
2018-08-03T14:35:36.931Z,27.49
2018-08-03T14:38:14.729Z,27.51
2018-08-03T14:40:57.972Z,27.52
2018-08-03T14:43:35.331Z,27.54
2018-08-03T14:46:12.476Z,27.54
2018-08-03T14:48:49.546Z,27.52
2018-08-03T14:51:29.278Z,27.53
2018-08-03T14:54:06.646Z,27.55
2018-08-03T14:56:42.548Z,27.56
2018-08-03T14:59:21.401Z,27.52
2018-08-03T15:01:58.874Z,27.54
2018-08-03T15:04:37.646Z,27.54
2018-08-03T15:07:14.760Z,27.51
2018-08-03T15:09:51.206Z,27.53
2018-08-03T15:12:29.076Z,27.50
2018-08-03T15:15:07.475Z,27.49
2018-08-03T15:17:49.195Z,27.49
2018-08-03T15:20:26.994Z,27.52
2018-08-03T15:23:06.357Z,27.55
2018-08-03T15:25:44.962Z,27.61
2018-08-03T15:28:23.243Z,27.57
2018-08-03T15:31:02.678Z,27.57
2018-08-03T15:33:39.208Z,27.55
2018-08-03T15:36:16.879Z,27.49
2018-08-03T15:38:54.046Z,27.53
2018-08-03T15:41:30.397Z,27.55
2018-08-03T15:44:07.558Z,27.57
2018-08-03T15:46:43.848Z,27.62
2018-08-03T15:49:21.028Z,27.69
2018-08-03T15:51:58.326Z,27.72
2018-08-03T15:54:34.994Z,27.75
2018-08-03T15:57:11.449Z,27.83
2018-08-03T15:59:48.486Z,27.84
2018-08-03T16:02:25.519Z,27.86
2018-08-03T16:05:01.833Z,27.82
2018-08-03T16:07:38.476Z,27.82
2018-08-03T16:10:15.604Z,27.77
2018-08-03T16:12:53.525Z,27.87
2018-08-03T16:15:29.792Z,27.88
2018-08-03T16:18:06.481Z,27.89
2018-08-03T16:23:30.475Z,27.79
2018-08-03T16:26:06.885Z,27.73
2018-08-03T16:28:42.839Z,27.74
2018-08-03T16:31:20.886Z,27.81
2018-08-03T16:33:56.911Z,27.82
2018-08-03T16:36:32.313Z,27.78
2018-08-03T16:39:09.728Z,27.61
2018-08-03T16:41:45.368Z,27.53
2018-08-03T16:44:21.033Z,27.48
2018-08-03T16:46:56.719Z,27.40
2018-08-03T16:49:33.022Z,27.44
2018-08-03T16:52:09.560Z,27.50
2018-08-03T16:54:45.946Z,27.54
2018-08-03T16:57:21.832Z,27.55
2018-08-03T16:59:57.521Z,27.59
2018-08-03T17:02:35.127Z,27.62
2018-08-03T17:05:18.728Z,27.62
2018-08-03T17:07:57.914Z,27.64
2018-08-03T17:10:37.876Z,27.63
2018-08-03T17:13:15.188Z,27.57
2018-08-03T17:15:51.959Z,27.57
2018-08-03T17:18:28.480Z,27.56
2018-08-03T17:21:04.430Z,27.53
2018-08-03T17:23:41.244Z,27.46
2018-08-03T17:26:18.075Z,27.46
2018-08-03T17:28:57.999Z,27.49
2018-08-03T17:31:37.514Z,27.53
2018-08-03T17:34:14.952Z,27.55
2018-08-03T17:36:52.847Z,27.58
2018-08-03T17:39:30.686Z,27.61
2018-08-03T17:42:07.170Z,27.64
2018-08-03T17:44:44.130Z,27.63
2018-08-03T17:47:20.877Z,27.60
2018-08-03T17:49:57.996Z,27.63
2018-08-03T17:52:36.077Z,27.58
2018-08-03T17:55:12.202Z,27.62
2018-08-03T17:57:50.010Z,27.64
2018-08-03T18:00:26.441Z,27.64
2018-08-03T18:03:03.558Z,27.63
2018-08-03T18:05:39.800Z,27.66
2018-08-03T18:08:15.641Z,27.66
2018-08-03T18:10:52.834Z,27.62
2018-08-03T18:13:30.110Z,27.57
2018-08-03T18:16:07.434Z,27.63
2018-08-03T18:18:45.038Z,27.64
2018-08-03T18:21:23.082Z,27.65
2018-08-03T18:24:00.966Z,27.65
2018-08-03T18:26:38.597Z,27.69
2018-08-03T18:29:16.211Z,27.70
2018-08-03T18:31:53.548Z,27.73
2018-08-03T18:34:30.556Z,27.73
2018-08-03T18:37:07.761Z,27.69
2018-08-03T18:39:45.904Z,27.65
2018-08-03T18:42:23.518Z,27.61
2018-08-03T18:45:01.505Z,27.59
2018-08-03T18:47:39.775Z,27.58
2018-08-03T18:50:17.874Z,27.53
2018-08-03T18:52:55.936Z,27.49
2018-08-03T18:55:33.361Z,27.41
2018-08-03T18:58:11.135Z,27.40
2018-08-03T19:00:47.960Z,27.42
2018-08-03T19:03:25.398Z,27.44
2018-08-03T19:06:02.956Z,27.47
2018-08-03T19:08:41.924Z,27.43
2018-08-03T19:11:19.873Z,27.48
2018-08-03T19:13:57.357Z,27.49
2018-08-03T19:16:34.562Z,27.46
2018-08-03T19:19:11.692Z,27.45
2018-08-03T19:21:48.988Z,27.49
2018-08-03T19:24:26.838Z,27.49
2018-08-03T19:27:04.197Z,27.51
2018-08-03T19:29:41.233Z,27.51
2018-08-03T19:32:18.485Z,27.51
2018-08-03T19:34:56.008Z,27.53
2018-08-03T19:37:34.031Z,27.50
2018-08-03T19:40:11.522Z,27.48
2018-08-03T19:42:49.254Z,27.49
2018-08-03T19:45:26.565Z,27.49
2018-08-03T19:48:03.886Z,27.54
2018-08-03T19:50:40.893Z,27.55
2018-08-03T19:53:19.209Z,27.58
2018-08-03T19:55:56.797Z,27.57
2018-08-03T19:58:34.206Z,27.56
2018-08-03T20:01:10.645Z,27.50
2018-08-03T20:03:48.721Z,27.59
2018-08-03T20:06:26.156Z,27.56
2018-08-03T20:09:03.359Z,27.53
2018-08-03T20:11:41.038Z,27.49
2018-08-03T20:14:18.803Z,27.46
2018-08-03T20:16:56.569Z,27.45
2018-08-03T20:19:34.445Z,27.45
2018-08-03T20:22:17.839Z,27.40
2018-08-03T20:24:55.999Z,27.39
2018-08-03T20:27:34.004Z,27.40
2018-08-03T20:30:11.761Z,27.40
2018-08-03T20:32:48.764Z,27.37
2018-08-03T20:35:26.072Z,27.40
2018-08-03T20:38:03.767Z,27.43
2018-08-03T20:40:40.651Z,27.42
2018-08-03T20:43:17.928Z,27.41
2018-08-03T20:45:55.712Z,27.38
2018-08-03T20:48:32.762Z,27.39
2018-08-03T20:51:09.691Z,27.37
2018-08-03T20:53:47.449Z,27.35
2018-08-03T20:56:25.166Z,27.35
2018-08-03T20:59:02.287Z,27.31
2018-08-03T21:01:40.564Z,27.33
2018-08-03T21:04:18.474Z,27.35
2018-08-03T21:06:55.313Z,27.31
2018-08-03T21:09:32.485Z,27.29
2018-08-03T21:12:09.290Z,27.27
2018-08-03T21:14:47.605Z,27.27
2018-08-03T21:17:24.399Z,27.30
2018-08-03T21:20:02.805Z,27.26
2018-08-03T21:22:40.613Z,27.27
2018-08-03T21:25:18.646Z,27.25
2018-08-03T21:27:57.111Z,27.23
2018-08-03T21:30:35.647Z,27.25
2018-08-03T21:33:12.481Z,27.24
2018-08-03T21:35:50.440Z,27.24
2018-08-03T21:38:27.439Z,27.21
2018-08-03T21:41:05.207Z,27.17
2018-08-03T21:43:42.609Z,27.16
2018-08-03T21:46:20.919Z,27.16
2018-08-03T21:48:58.527Z,27.15
2018-08-03T21:51:36.832Z,27.14
2018-08-03T21:54:14.325Z,27.15
2018-08-03T21:56:51.438Z,27.15
2018-08-03T21:59:28.223Z,27.17
2018-08-03T22:02:05.360Z,27.20
2018-08-03T22:04:42.601Z,27.21
2018-08-03T22:07:20.285Z,27.21
2018-08-03T22:09:58.330Z,27.24
2018-08-03T22:12:36.134Z,27.25
2018-08-03T22:15:14.210Z,27.26
2018-08-03T22:17:51.620Z,27.25
2018-08-03T22:20:28.116Z,27.27
2018-08-03T22:23:05.600Z,27.27
2018-08-03T22:25:43.036Z,27.29
2018-08-03T22:28:20.806Z,27.31
2018-08-03T22:30:58.646Z,27.30
2018-08-03T22:33:36.363Z,27.30
2018-08-03T22:36:13.600Z,27.27
2018-08-03T22:38:50.519Z,27.24
2018-08-03T22:41:28.235Z,27.23
2018-08-03T22:44:05.331Z,27.20
2018-08-03T22:46:42.436Z,27.24
2018-08-03T22:49:20.322Z,27.26
2018-08-03T22:51:57.312Z,27.29
2018-08-03T22:54:34.127Z,27.28
2018-08-03T22:57:11.609Z,27.37
2018-08-03T22:59:49.363Z,27.28
2018-08-03T23:02:26.488Z,27.31
2018-08-03T23:05:03.596Z,27.34
2018-08-03T23:07:40.994Z,27.33
2018-08-03T23:10:18.478Z,27.29
2018-08-03T23:12:55.607Z,27.28
2018-08-03T23:15:32.723Z,27.31
2018-08-03T23:18:10.481Z,27.34
2018-08-03T23:20:47.359Z,27.30
2018-08-03T23:23:24.614Z,27.30
2018-08-03T23:26:01.682Z,27.29
2018-08-03T23:28:39.603Z,27.29
2018-08-03T23:31:17.798Z,27.26
2018-08-03T23:33:54.803Z,27.32
2018-08-03T23:36:30.852Z,27.27
2018-08-03T23:39:08.994Z,27.25
2018-08-03T23:41:46.159Z,27.28
2018-08-03T23:44:23.525Z,27.32
2018-08-03T23:47:00.238Z,27.27
2018-08-03T23:49:37.567Z,27.27
2018-08-03T23:52:14.408Z,27.25
2018-08-03T23:54:51.203Z,27.27
2018-08-03T23:57:28.015Z,27.24
